Time;durP1;ratioP1;P1;durP2;ratioP2;P2;SDS_P1;SDS_P2;PMS_P1;PMS_P2;Temp;Humidity;BMP_temperature;BMP_pressure;BME280_temperature;BME280_humidity;BME280_pressure;Samples;Min_cycle;Max_cycle;Signal;HPM_P1;HPM_P2
2022/04/06 00:00:29;;;;;;;8.23;2.70;;;;;;;;;;5111289;28;20208;-80
2022/04/06 00:02:57;;;;;;;6.10;2.60;;;;;;;;;;5093923;28;20610;-81
2022/04/06 00:05:25;;;;;;;9.57;2.80;;;;;;;;;;5107465;28;20312;-80
2022/04/06 00:07:52;;;;;;;7.00;3.00;;;;;;;;;;5093701;28;20234;-80
2022/04/06 00:10:20;;;;;;;5.60;3.17;;;;;;;;;;5093319;28;20264;-80
2022/04/06 00:12:47;;;;;;;7.33;2.53;;;;;;;;;;5093532;28;20289;-80
2022/04/06 00:15:14;;;;;;;7.23;2.60;;;;;;;;;;5101795;28;20276;-81
2022/04/06 00:17:41;;;;;;;6.30;2.60;;;;;;;;;;5103244;28;20233;-80
2022/04/06 00:20:09;;;;;;;5.80;2.73;;;;;;;;;;5101406;28;20301;-80
2022/04/06 00:22:38;;;;;;;5.87;2.57;;;;;;;;;;5113857;28;20612;-80
2022/04/06 00:25:05;;;;;;;7.03;2.53;;;;;;;;;;5105367;28;20306;-80
2022/04/06 00:27:32;;;;;;;5.70;2.17;;;;;;;;;;5093249;28;20284;-80
2022/04/06 00:30:00;;;;;;;4.80;2.40;;;;;;;;;;5092756;28;20710;-80
2022/04/06 00:32:27;;;;;;;7.13;2.90;;;;;;;;;;5104172;28;20913;-80
2022/04/06 00:37:40;;;;;;;6.83;2.40;;;;;;;;;;5092965;28;20212;-80
2022/04/06 00:40:08;;;;;;;5.47;2.40;;;;;;;;;;5092988;28;20292;-81
2022/04/06 00:42:35;;;;;;;8.03;2.73;;;;;;;;;;5096974;28;21037;-80
2022/04/06 00:45:02;;;;;;;6.53;2.87;;;;;;;;;;5106705;28;20219;-80
2022/04/06 00:47:30;;;;;;;6.53;3.20;;;;;;;;;;5113304;28;20239;-80
2022/04/06 00:49:57;;;;;;;5.27;2.70;;;;;;;;;;5112378;28;20206;-80
2022/04/06 00:52:24;;;;;;;7.23;2.37;;;;;;;;;;5099587;28;20665;-80
2022/04/06 00:54:53;;;;;;;5.07;2.57;;;;;;;;;;5093251;28;20224;-81
2022/04/06 00:57:20;;;;;;;6.70;2.83;;;;;;;;;;5096285;28;20250;-80
2022/04/06 00:59:49;;;;;;;7.50;2.80;;;;;;;;;;5104535;28;20246;-80
2022/04/06 01:02:16;;;;;;;7.10;2.87;;;;;;;;;;5095797;28;20237;-80
2022/04/06 01:04:44;;;;;;;6.20;2.50;;;;;;;;;;5096953;28;20295;-80
2022/04/06 01:07:11;;;;;;;6.50;2.70;;;;;;;;;;5098697;28;20196;-80
2022/04/06 01:09:38;;;;;;;5.97;2.93;;;;;;;;;;5092413;28;20237;-80
2022/04/06 01:12:08;;;;;;;6.30;3.70;;;;;;;;;;5092676;28;20259;-80
2022/04/06 01:14:35;;;;;;;7.23;3.30;;;;;;;;;;5092869;28;20296;-80
2022/04/06 01:17:04;;;;;;;7.33;2.90;;;;;;;;;;5092728;28;20226;-80
2022/04/06 01:19:31;;;;;;;9.07;3.27;;;;;;;;;;5095163;28;20230;-80
2022/04/06 01:21:59;;;;;;;5.67;2.73;;;;;;;;;;5111959;28;20204;-80
2022/04/06 01:24:27;;;;;;;9.00;3.00;;;;;;;;;;5110638;28;20240;-81
2022/04/06 01:26:55;;;;;;;7.00;2.77;;;;;;;;;;5100455;28;20670;-80
2022/04/06 01:29:22;;;;;;;7.30;2.77;;;;;;;;;;5092370;28;20202;-80
2022/04/06 01:31:49;;;;;;;6.87;2.50;;;;;;;;;;5103589;28;20236;-80
2022/04/06 01:34:16;;;;;;;6.83;2.50;;;;;;;;;;5112331;28;20232;-81
2022/04/06 01:36:43;;;;;;;8.20;2.90;;;;;;;;;;5111107;28;20304;-81
2022/04/06 01:39:11;;;;;;;7.53;2.70;;;;;;;;;;5099745;28;20239;-81
2022/04/06 01:41:39;;;;;;;4.83;2.33;;;;;;;;;;5093114;28;20226;-81
2022/04/06 01:44:07;;;;;;;6.67;2.47;;;;;;;;;;5091498;28;20241;-80
2022/04/06 01:46:36;;;;;;;10.27;2.87;;;;;;;;;;5092180;28;20261;-81
2022/04/06 01:54:33;;;;;;;8.43;2.90;;;;;;;;;;5096214;28;20243;-80
2022/04/06 01:57:02;;;;;;;6.60;2.90;;;;;;;;;;5094031;28;20288;-81
2022/04/06 01:59:29;;;;;;;7.47;2.77;;;;;;;;;;5091904;28;20476;-81
2022/04/06 02:01:57;;;;;;;8.87;3.07;;;;;;;;;;5096156;28;20190;-80
2022/04/06 02:04:24;;;;;;;4.53;2.90;;;;;;;;;;5112107;28;20202;-80
2022/04/06 02:06:51;;;;;;;10.40;3.23;;;;;;;;;;5099277;28;20313;-80
2022/04/06 02:09:19;;;;;;;7.90;3.10;;;;;;;;;;5091468;28;20269;-81
2022/04/06 02:11:48;;;;;;;8.77;3.40;;;;;;;;;;5097350;28;20551;-80
2022/04/06 02:14:17;;;;;;;8.93;3.33;;;;;;;;;;5111907;28;20237;-80
2022/04/06 02:16:45;;;;;;;8.33;3.10;;;;;;;;;;5112142;28;20568;-80
2022/04/06 02:19:12;;;;;;;7.47;2.83;;;;;;;;;;5103941;28;20235;-81
2022/04/06 02:21:39;;;;;;;7.03;2.63;;;;;;;;;;5104223;28;20737;-80
2022/04/06 02:24:06;;;;;;;4.50;2.10;;;;;;;;;;5100258;28;20229;-80
2022/04/06 02:26:34;;;;;;;8.80;2.30;;;;;;;;;;5110210;28;20213;-80
2022/04/06 02:29:01;;;;;;;6.77;2.20;;;;;;;;;;5105174;28;20286;-81
2022/04/06 02:31:30;;;;;;;5.80;2.30;;;;;;;;;;5091264;28;20198;-80
2022/04/06 02:33:57;;;;;;;5.07;2.37;;;;;;;;;;5091458;28;20281;-80
2022/04/06 02:36:24;;;;;;;7.43;2.20;;;;;;;;;;5091779;28;20271;-80
2022/04/06 02:38:52;;;;;;;5.67;2.00;;;;;;;;;;5091913;28;20194;-80
2022/04/06 02:41:19;;;;;;;4.10;2.30;;;;;;;;;;5101961;28;20248;-80
2022/04/06 02:43:46;;;;;;;8.13;2.57;;;;;;;;;;5111426;28;20220;-80
2022/04/06 02:46:14;;;;;;;6.17;2.47;;;;;;;;;;5111258;28;20308;-81
2022/04/06 02:48:43;;;;;;;5.63;2.50;;;;;;;;;;5110527;28;20208;-81
2022/04/06 02:51:10;;;;;;;6.40;2.43;;;;;;;;;;5096841;28;20229;-80
2022/04/06 02:53:37;;;;;;;7.33;2.50;;;;;;;;;;5106935;28;20662;-79
2022/04/06 02:56:05;;;;;;;6.57;2.83;;;;;;;;;;5111266;28;20764;-80
2022/04/06 02:58:32;;;;;;;5.63;2.80;;;;;;;;;;5105955;28;20678;-80
2022/04/06 03:00:59;;;;;;;7.83;3.37;;;;;;;;;;5105218;28;20226;-80
2022/04/06 03:03:26;;;;;;;9.37;3.30;;;;;;;;;;5093250;28;20227;-80
2022/04/06 03:05:55;;;;;;;7.80;3.50;;;;;;;;;;5112657;28;20222;-80
2022/04/06 03:08:22;;;;;;;6.83;3.13;;;;;;;;;;5112173;28;20632;-80
2022/04/06 03:10:49;;;;;;;6.50;3.23;;;;;;;;;;5094624;28;20671;-80
2022/04/06 03:13:17;;;;;;;6.03;3.40;;;;;;;;;;5094777;28;20335;-79
2022/04/06 03:15:44;;;;;;;8.43;3.80;;;;;;;;;;5096733;28;20233;-80
2022/04/06 03:18:12;;;;;;;6.33;3.40;;;;;;;;;;5113562;28;20288;-80
2022/04/06 03:20:39;;;;;;;8.50;3.30;;;;;;;;;;5102425;28;20293;-79
2022/04/06 03:23:08;;;;;;;8.83;3.40;;;;;;;;;;5102523;28;20244;-80
2022/04/06 03:25:35;;;;;;;7.90;3.30;;;;;;;;;;5094571;28;20280;-79
2022/04/06 03:28:02;;;;;;;8.17;3.70;;;;;;;;;;5094587;28;20280;-79
2022/04/06 03:30:30;;;;;;;8.27;3.57;;;;;;;;;;5094058;28;20203;-80
2022/04/06 03:32:57;;;;;;;8.73;3.63;;;;;;;;;;5093904;28;20568;-79
2022/04/06 03:35:24;;;;;;;6.87;3.03;;;;;;;;;;5095064;28;20242;-80
2022/04/06 03:37:52;;;;;;;8.03;3.97;;;;;;;;;;5094851;28;20198;-80
2022/04/06 03:40:20;;;;;;;7.40;3.43;;;;;;;;;;5094156;28;20234;-80
2022/04/06 03:42:47;;;;;;;6.40;3.30;;;;;;;;;;5094615;28;20200;-80
2022/04/06 03:45:15;;;;;;;8.20;4.00;;;;;;;;;;5094269;28;20229;-79
2022/04/06 03:47:43;;;;;;;8.17;3.70;;;;;;;;;;5093509;28;20243;-79
2022/04/06 03:50:10;;;;;;;8.17;4.43;;;;;;;;;;5094032;28;20252;-79
2022/04/06 03:52:37;;;;;;;8.40;4.10;;;;;;;;;;5093384;28;20628;-79
2022/04/06 03:55:07;;;;;;;8.37;4.27;;;;;;;;;;5093710;28;20233;-80
2022/04/06 03:57:35;;;;;;;9.90;4.53;;;;;;;;;;5093662;28;20228;-79
2022/04/06 04:00:04;;;;;;;9.03;4.10;;;;;;;;;;5097856;28;20385;-79
2022/04/06 04:02:31;;;;;;;7.87;4.40;;;;;;;;;;5113316;28;20245;-79
2022/04/06 04:04:59;;;;;;;8.80;4.63;;;;;;;;;;5114070;28;20197;-79
2022/04/06 04:07:26;;;;;;;6.63;4.27;;;;;;;;;;5094718;28;20222;-80
2022/04/06 04:09:54;;;;;;;8.53;4.10;;;;;;;;;;5105443;28;20309;-79
2022/04/06 04:12:21;;;;;;;8.93;4.27;;;;;;;;;;5106124;28;20250;-80
2022/04/06 04:14:50;;;;;;;7.70;4.33;;;;;;;;;;5113147;28;20226;-81
2022/04/06 04:17:17;;;;;;;8.67;4.17;;;;;;;;;;5109433;28;20197;-81
2022/04/06 04:19:45;;;;;;;8.90;3.77;;;;;;;;;;5105448;28;20222;-79
2022/04/06 04:22:13;;;;;;;7.93;4.17;;;;;;;;;;5093545;28;20220;-81
2022/04/06 04:24:40;;;;;;;8.93;3.43;;;;;;;;;;5113610;28;20216;-81
2022/04/06 04:27:08;;;;;;;9.00;3.70;;;;;;;;;;5105787;28;20252;-81
2022/04/06 04:29:35;;;;;;;6.00;3.33;;;;;;;;;;5093171;28;20277;-81
2022/04/06 04:32:04;;;;;;;12.10;3.43;;;;;;;;;;5103314;28;20280;-80
2022/04/06 04:34:31;;;;;;;6.30;3.17;;;;;;;;;;5112488;28;20194;-80
2022/04/06 04:36:58;;;;;;;8.77;3.33;;;;;;;;;;5095858;28;20285;-79
2022/04/06 04:39:25;;;;;;;9.07;3.60;;;;;;;;;;5108668;28;20205;-81
2022/04/06 04:41:53;;;;;;;8.07;3.57;;;;;;;;;;5102109;28;20303;-81
2022/04/06 04:44:20;;;;;;;9.93;3.60;;;;;;;;;;5092378;28;20637;-78
2022/04/06 04:46:47;;;;;;;6.60;2.90;;;;;;;;;;5092845;28;20800;-79
2022/04/06 04:49:16;;;;;;;6.07;3.03;;;;;;;;;;5092972;28;20625;-81
2022/04/06 04:51:43;;;;;;;5.80;2.87;;;;;;;;;;5107069;28;20233;-81
2022/04/06 04:54:10;;;;;;;6.83;2.80;;;;;;;;;;5112427;28;20296;-81
2022/04/06 04:56:40;;;;;;;6.60;2.83;;;;;;;;;;5112038;28;20994;-80
2022/04/06 04:59:07;;;;;;;5.33;2.60;;;;;;;;;;5102609;28;20301;-81
2022/04/06 05:01:35;;;;;;;9.30;2.73;;;;;;;;;;5099267;28;20628;-79
2022/04/06 05:04:02;;;;;;;6.00;2.70;;;;;;;;;;5112138;28;20197;-80
2022/04/06 05:06:31;;;;;;;7.20;2.67;;;;;;;;;;5112499;28;20263;-81
2022/04/06 05:08:58;;;;;;;4.80;2.73;;;;;;;;;;5097236;28;20223;-81
2022/04/06 05:11:25;;;;;;;6.93;2.90;;;;;;;;;;5104924;28;20288;-80
2022/04/06 05:13:52;;;;;;;7.40;2.67;;;;;;;;;;5104727;28;20233;-80
2022/04/06 05:16:20;;;;;;;4.40;2.77;;;;;;;;;;5102515;28;20236;-79
2022/04/06 05:18:47;;;;;;;6.60;2.73;;;;;;;;;;5074374;28;20256;-80
2022/04/06 05:21:14;;;;;;;5.43;2.70;;;;;;;;;;5096705;28;20296;-79
2022/04/06 05:23:43;;;;;;;4.47;2.40;;;;;;;;;;5109583;28;20277;-78
2022/04/06 05:26:10;;;;;;;5.27;2.60;;;;;;;;;;5092171;28;20641;-79
2022/04/06 05:28:37;;;;;;;5.30;2.70;;;;;;;;;;5091785;28;20296;-79
2022/04/06 05:31:04;;;;;;;10.03;3.30;;;;;;;;;;5092714;28;20251;-79
2022/04/06 05:33:31;;;;;;;5.17;2.60;;;;;;;;;;5103434;28;20285;-79
2022/04/06 05:35:58;;;;;;;5.97;2.80;;;;;;;;;;5103444;28;20288;-79
2022/04/06 05:38:26;;;;;;;6.53;2.97;;;;;;;;;;5108533;28;20327;-78
2022/04/06 05:40:55;;;;;;;8.87;3.00;;;;;;;;;;5106978;28;20216;-78
2022/04/06 05:43:22;;;;;;;6.67;3.00;;;;;;;;;;5103015;28;20737;-79
2022/04/06 05:45:49;;;;;;;7.90;3.13;;;;;;;;;;5098241;28;20277;-80
2022/04/06 05:48:16;;;;;;;7.10;3.77;;;;;;;;;;5093329;28;20228;-79
2022/04/06 05:50:44;;;;;;;9.43;3.47;;;;;;;;;;5093219;28;20201;-79
2022/04/06 05:53:11;;;;;;;8.30;3.73;;;;;;;;;;5099388;28;20243;-80
2022/04/06 05:55:38;;;;;;;11.27;3.20;;;;;;;;;;5099630;27;20364;-79
2022/04/06 05:58:07;;;;;;;6.77;3.23;;;;;;;;;;5103230;28;20192;-79
2022/04/06 06:00:34;;;;;;;6.03;3.60;;;;;;;;;;5108648;28;20291;-78
2022/04/06 06:03:02;;;;;;;6.67;3.57;;;;;;;;;;5104308;28;20241;-79
2022/04/06 06:05:29;;;;;;;8.00;3.93;;;;;;;;;;5100981;28;20244;-78
2022/04/06 06:07:56;;;;;;;9.17;4.00;;;;;;;;;;5090862;28;20316;-78
2022/04/06 06:10:23;;;;;;;8.43;3.33;;;;;;;;;;5107589;28;20249;-78
2022/04/06 06:12:50;;;;;;;9.17;3.33;;;;;;;;;;5104312;28;20281;-78
2022/04/06 06:15:19;;;;;;;8.07;3.60;;;;;;;;;;5101515;28;20288;-79
2022/04/06 06:17:46;;;;;;;7.80;3.23;;;;;;;;;;5108303;28;20284;-78
2022/04/06 06:20:13;;;;;;;6.77;3.50;;;;;;;;;;5099587;28;20240;-78
2022/04/06 06:22:40;;;;;;;6.33;3.40;;;;;;;;;;5106040;28;20292;-78
2022/04/06 06:25:08;;;;;;;7.30;3.33;;;;;;;;;;5098548;28;20240;-78
2022/04/06 06:27:38;;;;;;;7.30;3.27;;;;;;;;;;5101711;28;20300;-78
2022/04/06 06:30:06;;;;;;;7.57;3.10;;;;;;;;;;5096618;28;20324;-78
2022/04/06 06:32:35;;;;;;;6.90;3.50;;;;;;;;;;5100166;28;20251;-78
2022/04/06 06:35:02;;;;;;;7.80;3.43;;;;;;;;;;5099222;28;20292;-78
2022/04/06 06:37:29;;;;;;;7.13;2.83;;;;;;;;;;5103847;28;20633;-79
2022/04/06 06:39:57;;;;;;;5.87;2.63;;;;;;;;;;5108574;28;20615;-79
2022/04/06 06:42:24;;;;;;;7.07;2.60;;;;;;;;;;5103083;28;20642;-79
2022/04/06 06:44:51;;;;;;;6.27;2.93;;;;;;;;;;5103667;28;20672;-79
2022/04/06 06:47:18;;;;;;;5.33;2.97;;;;;;;;;;5103047;28;20666;-79
2022/04/06 06:49:47;;;;;;;6.30;3.00;;;;;;;;;;5105464;28;20708;-82
2022/04/06 06:52:15;;;;;;;6.63;2.83;;;;;;;;;;5098457;28;20685;-82
2022/04/06 06:54:42;;;;;;;6.27;2.60;;;;;;;;;;5101113;28;20693;-82
2022/04/06 06:57:11;;;;;;;3.93;2.87;;;;;;;;;;5107847;28;20285;-82
2022/04/06 06:59:38;;;;;;;5.57;3.17;;;;;;;;;;5089158;28;20593;-82
2022/04/06 07:02:05;;;;;;;6.13;2.60;;;;;;;;;;5110039;28;20297;-83
2022/04/06 07:04:33;;;;;;;4.80;2.60;;;;;;;;;;5111125;28;20581;-82
2022/04/06 07:07:01;;;;;;;4.10;2.27;;;;;;;;;;5101241;28;20264;-82
2022/04/06 07:09:28;;;;;;;12.10;2.60;;;;;;;;;;5109448;28;20258;-81
2022/04/06 07:11:56;;;;;;;5.63;2.33;;;;;;;;;;5102437;28;20198;-82
2022/04/06 07:14:23;;;;;;;5.67;2.47;;;;;;;;;;5106918;28;20922;-82
2022/04/06 07:16:50;;;;;;;5.80;2.60;;;;;;;;;;5098779;28;20231;-83
2022/04/06 07:19:17;;;;;;;5.00;2.50;;;;;;;;;;5113008;28;20320;-82
2022/04/06 07:21:46;;;;;;;5.40;3.13;;;;;;;;;;5105177;28;20286;-82
2022/04/06 07:24:14;;;;;;;3.80;2.47;;;;;;;;;;5099493;28;20307;-82
2022/04/06 07:26:41;;;;;;;5.30;2.30;;;;;;;;;;5102181;28;20246;-82
2022/04/06 07:29:11;;;;;;;7.10;3.30;;;;;;;;;;5102827;28;20277;-82
2022/04/06 07:31:38;;;;;;;6.37;3.33;;;;;;;;;;5102237;28;20669;-83
2022/04/06 07:34:05;;;;;;;7.17;3.43;;;;;;;;;;5106562;28;20245;-82
2022/04/06 07:36:34;;;;;;;6.40;3.00;;;;;;;;;;5103959;28;20281;-82
2022/04/06 07:39:02;;;;;;;4.70;2.87;;;;;;;;;;5103676;28;20209;-83
2022/04/06 07:41:31;;;;;;;4.30;2.33;;;;;;;;;;5109432;28;20194;-83
2022/04/06 07:43:58;;;;;;;5.90;2.30;;;;;;;;;;5099307;28;20230;-78
2022/04/06 07:46:26;;;;;;;4.80;2.60;;;;;;;;;;5110612;28;20221;-82
2022/04/06 07:48:53;;;;;;;3.77;2.17;;;;;;;;;;5110309;28;20226;-83
2022/04/06 07:51:20;;;;;;;5.37;1.90;;;;;;;;;;5100986;28;20622;-83
2022/04/06 07:53:47;;;;;;;6.33;2.07;;;;;;;;;;5101680;28;20226;-83
2022/04/06 07:56:14;;;;;;;3.27;1.70;;;;;;;;;;5099138;28;20202;-83
2022/04/06 07:58:44;;;;;;;3.70;1.87;;;;;;;;;;5109411;28;20300;-84
2022/04/06 08:01:11;;;;;;;3.53;1.60;;;;;;;;;;5100995;28;20225;-82
2022/04/06 08:03:38;;;;;;;3.83;1.70;;;;;;;;;;5109412;28;20259;-82
2022/04/06 08:06:05;;;;;;;3.47;1.50;;;;;;;;;;5093253;28;20566;-77
2022/04/06 08:08:32;;;;;;;3.70;1.70;;;;;;;;;;5097723;28;20302;-79
2022/04/06 08:10:59;;;;;;;2.43;1.63;;;;;;;;;;5110332;28;20747;-78
2022/04/06 08:13:27;;;;;;;3.63;2.00;;;;;;;;;;5105477;28;20297;-78
2022/04/06 08:15:57;;;;;;;3.70;1.80;;;;;;;;;;5108476;28;20290;-78
2022/04/06 08:18:25;;;;;;;4.03;1.40;;;;;;;;;;5100561;28;20202;-78
2022/04/06 08:20:52;;;;;;;3.10;1.20;;;;;;;;;;5095202;28;20202;-77
2022/04/06 08:23:20;;;;;;;4.17;1.37;;;;;;;;;;5112352;28;20285;-77
2022/04/06 08:25:49;;;;;;;2.03;1.50;;;;;;;;;;5112978;28;20638;-78
2022/04/06 08:28:18;;;;;;;4.03;1.40;;;;;;;;;;5108189;28;20226;-77
2022/04/06 08:30:47;;;;;;;3.33;1.03;;;;;;;;;;5113361;28;20284;-78
2022/04/06 08:33:16;;;;;;;2.40;1.60;;;;;;;;;;5109422;28;20202;-79
2022/04/06 08:35:44;;;;;;;3.67;1.40;;;;;;;;;;5098386;28;20198;-78
2022/04/06 08:38:15;;;;;;;3.30;1.20;;;;;;;;;;5097934;28;20328;-78
2022/04/06 08:40:43;;;;;;;4.47;1.40;;;;;;;;;;5093086;28;20202;-76
2022/04/06 08:43:10;;;;;;;2.93;1.40;;;;;;;;;;5101287;28;20191;-78
2022/04/06 08:45:38;;;;;;;2.50;1.43;;;;;;;;;;5097564;28;20284;-78
2022/04/06 08:48:07;;;;;;;2.13;1.17;;;;;;;;;;5110002;28;20704;-77
2022/04/06 08:50:36;;;;;;;4.07;1.60;;;;;;;;;;5110191;28;20645;-79
2022/04/06 08:53:04;;;;;;;1.97;1.27;;;;;;;;;;5109550;28;20288;-79
2022/04/06 08:55:32;;;;;;;3.73;1.30;;;;;;;;;;5104078;28;20300;-78
2022/04/06 08:58:00;;;;;;;3.00;1.63;;;;;;;;;;5106153;28;20233;-79
2022/04/06 09:00:27;;;;;;;3.60;1.50;;;;;;;;;;5109095;28;20233;-77
2022/04/06 09:02:55;;;;;;;4.57;1.67;;;;;;;;;;5102907;28;20661;-77
2022/04/06 09:05:22;;;;;;;4.30;1.77;;;;;;;;;;5091548;28;20434;-78
2022/04/06 09:07:52;;;;;;;3.00;1.40;;;;;;;;;;5092457;28;20257;-78
2022/04/06 09:10:29;;;;;;;3.50;1.83;;;;;;;;;;5091856;28;20238;-77
2022/04/06 09:13:07;;;;;;;2.43;1.50;;;;;;;;;;5095340;28;20550;-77
2022/04/06 09:15:34;;;;;;;2.73;1.50;;;;;;;;;;5111923;28;20242;-78
2022/04/06 09:18:02;;;;;;;3.37;1.57;;;;;;;;;;5110053;28;20281;-77
2022/04/06 09:20:31;;;;;;;1.93;1.23;;;;;;;;;;5100956;28;20294;-78
2022/04/06 09:23:02;;;;;;;1.97;1.20;;;;;;;;;;5099383;28;20271;-77
2022/04/06 09:25:33;;;;;;;4.20;1.63;;;;;;;;;;5093051;28;20597;-77
2022/04/06 09:28:06;;;;;;;2.23;1.40;;;;;;;;;;5096817;28;20322;-77
2022/04/06 09:30:34;;;;;;;3.77;2.00;;;;;;;;;;5105343;28;20233;-78
2022/04/06 09:33:03;;;;;;;3.33;1.80;;;;;;;;;;5111557;28;20683;-81
2022/04/06 09:35:32;;;;;;;3.40;1.90;;;;;;;;;;5095792;28;20198;-80
2022/04/06 09:38:14;;;;;;;3.57;2.03;;;;;;;;;;5099480;28;20196;-80
2022/04/06 09:40:41;;;;;;;4.83;2.30;;;;;;;;;;5097011;28;20189;-80
2022/04/06 09:43:09;;;;;;;2.83;2.00;;;;;;;;;;5105414;28;20246;-80
2022/04/06 09:48:21;;;;;;;3.57;1.83;;;;;;;;;;5108222;28;20275;-80
2022/04/06 09:50:55;;;;;;;2.57;1.67;;;;;;;;;;5094767;28;20278;-80
2022/04/06 09:53:26;;;;;;;2.43;1.70;;;;;;;;;;5109202;28;20202;-81
2022/04/06 09:55:55;;;;;;;3.60;1.50;;;;;;;;;;5110795;28;20197;-80
2022/04/06 09:58:22;;;;;;;4.23;1.53;;;;;;;;;;5102321;28;20229;-80
2022/04/06 10:00:50;;;;;;;3.40;1.40;;;;;;;;;;5098071;28;20305;-81
2022/04/06 10:03:17;;;;;;;3.77;1.70;;;;;;;;;;5099921;28;20277;-80
2022/04/06 10:05:46;;;;;;;3.27;1.50;;;;;;;;;;5105947;28;20556;-80
2022/04/06 10:08:14;;;;;;;2.30;1.20;;;;;;;;;;5093685;28;20229;-80
2022/04/06 10:10:43;;;;;;;1.67;1.23;;;;;;;;;;5098889;28;20876;-80
2022/04/06 10:13:10;;;;;;;2.20;1.10;;;;;;;;;;5098617;28;20615;-80
2022/04/06 10:15:38;;;;;;;1.70;1.00;;;;;;;;;;5096738;28;20644;-80
2022/04/06 10:18:06;;;;;;;2.47;1.00;;;;;;;;;;5097204;28;20201;-80
2022/04/06 10:20:38;;;;;;;2.23;1.00;;;;;;;;;;5113596;28;20280;-80
2022/04/06 10:23:11;;;;;;;1.50;0.73;;;;;;;;;;5115659;28;20197;-80
2022/04/06 10:26:05;;;;;;;1.30;0.80;;;;;;;;;;5101329;28;20224;-80
2022/04/06 10:28:33;;;;;;;1.90;1.20;;;;;;;;;;5099407;28;20236;-79
2022/04/06 10:31:17;;;;;;;1.47;0.90;;;;;;;;;;5102509;28;20197;-80
2022/04/06 10:33:45;;;;;;;1.00;0.83;;;;;;;;;;5106884;28;20205;-79
2022/04/06 10:36:23;;;;;;;1.00;0.70;;;;;;;;;;5102368;28;20226;-80
2022/04/06 10:39:10;;;;;;;1.00;0.50;;;;;;;;;;5104323;28;20273;-80
2022/04/06 10:42:01;;;;;;;1.47;0.67;;;;;;;;;;5100817;28;20234;-80
2022/04/06 10:44:41;;;;;;;1.47;0.67;;;;;;;;;;5101758;28;20198;-80
2022/04/06 10:47:13;;;;;;;0.80;0.60;;;;;;;;;;5099204;28;20285;-82
2022/04/06 10:49:41;;;;;;;1.00;0.57;;;;;;;;;;5098079;28;20210;-81
2022/04/06 10:52:24;;;;;;;0.93;0.60;;;;;;;;;;5096574;28;20210;-82
2022/04/06 10:54:52;;;;;;;1.23;0.80;;;;;;;;;;5110033;28;20316;-81
2022/04/06 10:57:21;;;;;;;1.00;0.70;;;;;;;;;;5105466;28;20190;-80
2022/04/06 11:00:15;;;;;;;1.73;1.00;;;;;;;;;;5104688;28;20217;-80
2022/04/06 11:02:50;;;;;;;1.37;0.97;;;;;;;;;;5051845;28;20197;-81
2022/04/06 11:05:35;;;;;;;2.43;0.90;;;;;;;;;;5105677;28;20211;-79
2022/04/06 11:10:47;;;;;;;1.03;0.93;;;;;;;;;;5097100;28;20700;-81
2022/04/06 11:13:16;;;;;;;2.40;0.93;;;;;;;;;;5097956;28;20232;-80
2022/04/06 11:15:52;;;;;;;2.03;1.10;;;;;;;;;;5099637;28;20198;-80
2022/04/06 11:18:37;;;;;;;2.43;1.27;;;;;;;;;;5093818;28;20221;-80
2022/04/06 11:21:06;;;;;;;2.70;0.90;;;;;;;;;;5093935;28;20255;-80
2022/04/06 11:23:33;;;;;;;3.63;1.10;;;;;;;;;;5106908;28;20631;-81
2022/04/06 11:26:01;;;;;;;3.67;1.80;;;;;;;;;;5103713;28;20229;-81
2022/04/06 11:28:30;;;;;;;2.73;1.30;;;;;;;;;;5106792;28;20218;-81
2022/04/06 11:30:57;;;;;;;2.20;1.40;;;;;;;;;;5107692;28;20190;-80
2022/04/06 11:33:24;;;;;;;1.40;1.00;;;;;;;;;;5098178;28;20206;-80
2022/04/06 11:35:51;;;;;;;1.10;0.80;;;;;;;;;;5094408;28;20634;-79
2022/04/06 11:38:18;;;;;;;2.77;0.90;;;;;;;;;;5101241;28;20230;-80
2022/04/06 11:40:46;;;;;;;1.40;0.70;;;;;;;;;;5097096;28;20633;-80
2022/04/06 11:43:13;;;;;;;1.50;0.80;;;;;;;;;;5103782;28;20249;-80
2022/04/06 11:45:44;;;;;;;1.73;1.03;;;;;;;;;;5103287;28;20287;-79
2022/04/06 11:48:12;;;;;;;0.90;0.60;;;;;;;;;;5102922;28;20700;-80
2022/04/06 11:50:40;;;;;;;1.07;0.50;;;;;;;;;;5102780;28;20190;-80
2022/04/06 11:53:09;;;;;;;0.80;0.50;;;;;;;;;;5100746;28;20202;-79
2022/04/06 11:55:44;;;;;;;3.03;0.50;;;;;;;;;;5102300;28;20197;-79
2022/04/06 11:58:11;;;;;;;1.33;0.50;;;;;;;;;;5101109;28;20194;-79
2022/04/06 12:00:38;;;;;;;2.43;0.43;;;;;;;;;;5095028;28;20198;-79
2022/04/06 12:03:08;;;;;;;1.47;0.60;;;;;;;;;;5094952;28;20225;-80
2022/04/06 12:05:47;;;;;;;0.70;0.40;;;;;;;;;;5101167;28;20194;-79
2022/04/06 12:08:15;;;;;;;2.00;0.50;;;;;;;;;;5092061;28;20229;-79
2022/04/06 12:10:49;;;;;;;1.27;0.60;;;;;;;;;;5067655;28;1132312;-79
2022/04/06 12:13:17;;;;;;;1.27;0.60;;;;;;;;;;5105086;28;20201;-79
2022/04/06 12:15:45;;;;;;;1.20;0.70;;;;;;;;;;5101134;28;20198;-79
2022/04/06 12:18:15;;;;;;;1.20;0.43;;;;;;;;;;5097479;28;20191;-79
2022/04/06 12:20:42;;;;;;;1.83;0.73;;;;;;;;;;5103629;28;20282;-79
2022/04/06 12:23:09;;;;;;;1.83;0.77;;;;;;;;;;5100315;28;20700;-79
2022/04/06 12:25:37;;;;;;;2.10;0.73;;;;;;;;;;5104458;28;20570;-80
2022/04/06 12:28:11;;;;;;;0.93;0.50;;;;;;;;;;5104343;28;20271;-79
2022/04/06 12:30:50;;;;;;;3.70;1.13;;;;;;;;;;5111671;28;20209;-79
2022/04/06 12:36:16;;;;;;;1.80;1.30;;;;;;;;;;5128591;27;21076;-80
2022/04/06 12:38:45;;;;;;;2.67;1.30;;;;;;;;;;5114893;27;20541;-80
2022/04/06 12:41:13;;;;;;;2.23;1.10;;;;;;;;;;5108730;28;20228;-80
2022/04/06 12:43:41;;;;;;;2.10;0.90;;;;;;;;;;5118065;28;20732;-80
2022/04/06 12:46:08;;;;;;;2.77;1.30;;;;;;;;;;5108890;27;20262;-80
2022/04/06 12:48:35;;;;;;;2.57;0.97;;;;;;;;;;5108779;28;20205;-80
2022/04/06 12:51:21;;;;;;;2.57;1.20;;;;;;;;;;5125484;28;20284;-80
2022/04/06 12:53:48;;;;;;;3.60;1.20;;;;;;;;;;5122319;27;20277;-80
2022/04/06 12:56:15;;;;;;;2.00;0.90;;;;;;;;;;5124074;28;20692;-80
2022/04/06 12:58:43;;;;;;;3.63;0.87;;;;;;;;;;5125731;27;20213;-79
2022/04/06 13:01:11;;;;;;;2.67;1.00;;;;;;;;;;5119221;27;20208;-76
2022/04/06 13:03:39;;;;;;;2.40;1.10;;;;;;;;;;5115213;28;20197;-77
2022/04/06 13:06:06;;;;;;;3.30;1.07;;;;;;;;;;5117439;28;20218;-77
2022/04/06 13:08:35;;;;;;;3.10;1.10;;;;;;;;;;5119322;28;20293;-77
2022/04/06 13:11:04;;;;;;;2.37;0.90;;;;;;;;;;5125126;27;21117;-76
2022/04/06 13:13:31;;;;;;;1.60;1.07;;;;;;;;;;5109067;27;20230;-76
2022/04/06 13:15:58;;;;;;;2.50;0.90;;;;;;;;;;5114157;27;20253;-76
2022/04/06 13:18:25;;;;;;;2.60;0.97;;;;;;;;;;5108050;28;20229;-78
2022/04/06 13:20:53;;;;;;;2.57;0.87;;;;;;;;;;5111794;28;20756;-77
2022/04/06 13:23:20;;;;;;;4.47;1.40;;;;;;;;;;5119125;27;20240;-77
2022/04/06 13:25:49;;;;;;;2.97;0.80;;;;;;;;;;5116464;27;20733;-76
2022/04/06 13:28:16;;;;;;;2.93;0.80;;;;;;;;;;5115005;28;20731;-78
2022/04/06 13:30:44;;;;;;;1.77;0.80;;;;;;;;;;5106696;28;20761;-78
2022/04/06 13:33:12;;;;;;;3.27;0.90;;;;;;;;;;5106929;28;20193;-76
2022/04/06 13:35:39;;;;;;;1.17;0.77;;;;;;;;;;5106886;28;20230;-76
2022/04/06 13:38:06;;;;;;;1.63;1.20;;;;;;;;;;5126687;28;20202;-77
2022/04/06 13:40:33;;;;;;;2.10;0.90;;;;;;;;;;5120339;27;20232;-77
2022/04/06 13:43:02;;;;;;;3.70;0.97;;;;;;;;;;5124700;28;20201;-77
2022/04/06 13:45:29;;;;;;;2.03;1.13;;;;;;;;;;5125079;27;20272;-76
2022/04/06 13:47:57;;;;;;;2.97;0.90;;;;;;;;;;5103419;28;20204;-77
2022/04/06 13:50:24;;;;;;;2.03;0.80;;;;;;;;;;5101282;28;20636;-75
2022/04/06 13:52:52;;;;;;;1.17;0.80;;;;;;;;;;5108113;28;20692;-76
2022/04/06 13:55:21;;;;;;;2.50;1.13;;;;;;;;;;5098796;28;20356;-76
2022/04/06 13:57:49;;;;;;;2.70;0.90;;;;;;;;;;5099970;28;20194;-75
2022/04/06 14:00:18;;;;;;;3.47;1.20;;;;;;;;;;5102733;28;20223;-75
2022/04/06 14:02:48;;;;;;;3.60;1.20;;;;;;;;;;5093945;28;20314;-75
2022/04/06 14:05:19;;;;;;;1.93;0.93;;;;;;;;;;5102077;28;20202;-74
2022/04/06 14:07:46;;;;;;;2.77;1.13;;;;;;;;;;5101814;28;20259;-74
2022/04/06 14:10:13;;;;;;;2.77;1.10;;;;;;;;;;5101284;28;20200;-76
2022/04/06 14:12:40;;;;;;;3.33;1.10;;;;;;;;;;5097379;28;20209;-76
2022/04/06 14:15:08;;;;;;;2.63;1.10;;;;;;;;;;5096488;28;20313;-76
2022/04/06 14:17:37;;;;;;;4.43;1.00;;;;;;;;;;5107725;28;20547;-76
2022/04/06 14:20:04;;;;;;;3.30;1.40;;;;;;;;;;5106118;28;20224;-75
2022/04/06 14:22:32;;;;;;;5.03;1.13;;;;;;;;;;5095120;28;20289;-76
2022/04/06 14:25:19;;;;;;;5.27;1.13;;;;;;;;;;5103168;28;20252;-74
2022/04/06 14:27:46;;;;;;;5.10;2.00;;;;;;;;;;5099284;28;20190;-76
2022/04/06 14:30:14;;;;;;;3.43;1.00;;;;;;;;;;5102036;28;20198;-75
2022/04/06 14:32:42;;;;;;;3.57;1.20;;;;;;;;;;5107701;28;20202;-75
2022/04/06 14:35:10;;;;;;;2.33;1.00;;;;;;;;;;5091856;28;20257;-76
2022/04/06 14:37:38;;;;;;;2.70;1.10;;;;;;;;;;5100542;28;20209;-75
2022/04/06 14:40:07;;;;;;;3.87;1.10;;;;;;;;;;5099182;28;20225;-76
2022/04/06 14:42:34;;;;;;;3.77;1.10;;;;;;;;;;5086684;28;20303;-77
2022/04/06 14:45:01;;;;;;;1.93;1.00;;;;;;;;;;5096547;28;20575;-74
2022/04/06 14:47:29;;;;;;;4.43;1.00;;;;;;;;;;5094165;28;20202;-76
2022/04/06 14:49:57;;;;;;;3.43;1.27;;;;;;;;;;5089578;28;20674;-75
2022/04/06 14:52:24;;;;;;;3.63;1.20;;;;;;;;;;5100610;28;20275;-75
2022/04/06 14:54:52;;;;;;;2.60;1.00;;;;;;;;;;5105774;28;20302;-75
2022/04/06 14:57:19;;;;;;;3.20;1.00;;;;;;;;;;5100076;28;20288;-74
2022/04/06 14:59:46;;;;;;;2.20;1.27;;;;;;;;;;5096395;28;20236;-74
2022/04/06 15:02:14;;;;;;;3.77;1.60;;;;;;;;;;5095977;28;20883;-74
2022/04/06 15:04:41;;;;;;;2.13;1.40;;;;;;;;;;5095269;28;20233;-74
2022/04/06 15:07:11;;;;;;;2.30;1.00;;;;;;;;;;5102326;28;20206;-76